Rogersville, MO (65742)

8:14 PM CDT on April 30, 2017 (GMT -0500)
Rogersville | | Change Station

Elev 1453 ft 37.09 °N, 93.10 °W | Updated 9 minutes ago

Mostly Cloudy
Mostly Cloudy
50.7 °F
Feels Like 50.7 °F
N
10.0
Wind Variable Wind from South
Gusts 23.0 mph

Today
High -- | Low -- °F
--% Chance of Precip.
Yesterday
High -- | Low -- °F
Precip. -- in
Pressure 29.57 in
Visibility 10.0 miles
Clouds Few 2500 ft
Mostly Cloudy 5000 ft
Overcast 6000 ft
Dew Point 42 °F
Humidity 73%
Rainfall 0.94 in
Snow Depth Not available.
6:18 AM 8:00 PM
Waxing Crescent, 27% visible
METAR KSGF 010052Z 22017KT 10SM -RA FEW025 BKN050 OVC060 10/05 A2957 RMK AO2 PK WND 20035/2359 RAB11E27B48 SLP011 P0000 T01000050
Pressure 29.57 in
Visibility 10.0 miles
Clouds Few 2500 ft
Mostly Cloudy 5000 ft
Overcast 6000 ft
Dew Point 42 °F
Humidity 73%
Rainfall 0.94 in
Snow Depth Not available.
6:18 AM 8:00 PM
Waxing Crescent, 27% visible
METAR KSGF 010052Z 22017KT 10SM -RA FEW025 BKN050 OVC060 10/05 A2957 RMK AO2 PK WND 20035/2359 RAB11E27B48 SLP011 P0000 T01000050

Get Severe Weather Alerts

Thanks for signing up!

Be on the lookout for a verification email in your inbox.

You'll start receiving the daily forecast at 8 AM.

×

10-Day Weather Forecast

Almanac

Astronomy

Apr. 30, 2017 Rise Set
Actual Time
Civil Twilight
Nautical Twilight
Astronomical Twilight
Moon
Length of Visible Light
Length of Day
Tomorrow will be .
, % of the Moon is Illuminated

Today's Extremes

State Highs State Lows

Community

WunderPhotos

WunderBlog® & News

Nearby

Air Quality

  Air Quality AQ Index Pollutant
Not available.

Snow Depth

Station Depth Elevation

Earthquake Activity

City Distance Mag. Time & Date
Minimum magnitude displayed is 2.5.

Coastal Water Temperatures

Place Temperature

Stations

Nearby Weather Stations

Station Location Temp. Windchill Dew Point Humidity Wind Precip. Elev Updated Type
                   

Watches & Warnings

There are currently no watches in effect.